Time;durP1;ratioP1;P1;durP2;ratioP2;P2;SDS_P1;SDS_P2;PMS_P1;PMS_P2;Temp;Humidity;BMP_temperature;BMP_pressure;BME280_temperature;BME280_humidity;BME280_pressure;Samples;Min_cycle;Max_cycle;Signal;HPM_P1;HPM_P2
2022/09/24 00:01:54;;;;;;;1999.90;999.90;;;;;;;11.13;100.00;93430.72;6271345;22;20168;-63
2022/09/24 00:04:24;;;;;;;1999.90;999.90;;;;;;;11.14;100.00;93433.00;6270831;22;20163;-62
2022/09/24 00:06:49;;;;;;;1999.90;999.90;;;;;;;11.15;100.00;93431.03;6245035;23;20164;-63
2022/09/24 00:09:18;;;;;;;1999.90;999.90;;;;;;;11.16;100.00;93421.63;6271000;22;20503;-64
2022/09/24 00:11:44;;;;;;;1999.90;999.90;;;;;;;11.16;100.00;93424.34;6245169;23;20161;-61
2022/09/24 00:14:10;;;;;;;1999.90;999.90;;;;;;;11.14;100.00;93421.34;6245545;22;20173;-63
2022/09/24 00:16:35;;;;;;;1999.90;999.90;;;;;;;11.12;100.00;93418.28;6245411;22;20171;-62
2022/09/24 00:19:02;;;;;;;1999.90;999.90;;;;;;;11.12;100.00;93423.75;6245443;22;20163;-63
2022/09/24 00:21:33;;;;;;;1999.90;999.90;;;;;;;11.12;100.00;93418.28;6245383;23;20168;-63
2022/09/24 00:24:05;;;;;;;1999.90;999.90;;;;;;;11.09;100.00;93419.97;6270786;22;20479;-61
2022/09/24 00:26:48;;;;;;;1999.90;999.90;;;;;;;11.11;100.00;93414.03;6245617;23;20233;-62
2022/09/24 00:29:20;;;;;;;1999.90;999.90;;;;;;;11.10;100.00;93421.47;6271544;22;20196;-63
2022/09/24 00:31:46;;;;;;;1999.90;999.90;;;;;;;11.11;100.00;93417.50;6246007;23;20162;-63
2022/09/24 00:34:11;;;;;;;1999.90;999.90;;;;;;;11.12;100.00;93418.28;6271492;22;20169;-63
2022/09/24 00:36:37;;;;;;;1999.90;999.90;;;;;;;11.15;100.00;93409.19;6270823;22;20170;-62
2022/09/24 00:39:02;;;;;;;1999.90;999.90;;;;;;;11.18;100.00;93405.56;6270753;22;20191;-61
2022/09/24 00:41:31;;;;;;;1999.90;999.90;;;;;;;11.20;100.00;93408.56;6245065;23;20161;-61
2022/09/24 00:43:57;;;;;;;1999.90;999.90;;;;;;;11.27;100.00;93402.81;6270811;22;20169;-62
2022/09/24 00:46:28;;;;;;;1999.90;999.90;;;;;;;11.31;100.00;93403.41;6245231;23;20162;-63
2022/09/24 00:49:10;;;;;;;1999.90;999.90;;;;;;;11.35;100.00;93393.06;6270805;22;20500;-64
2022/09/24 00:51:37;;;;;;;1999.90;999.90;;;;;;;11.37;100.00;93393.41;6245226;23;20191;-63
2022/09/24 00:54:13;;;;;;;1999.90;999.90;;;;;;;11.37;100.00;93396.13;6245204;23;20161;-63
2022/09/24 00:56:41;;;;;;;1999.90;999.90;;;;;;;11.35;100.00;93395.81;6245780;23;20166;-63
2022/09/24 00:59:10;;;;;;;1999.90;999.90;;;;;;;11.31;100.00;93408.88;6244981;22;20477;-62
2022/09/24 01:01:36;;;;;;;1999.90;999.90;;;;;;;11.27;100.00;93408.25;6245556;22;20163;-62
2022/09/24 01:04:03;;;;;;;1999.90;999.90;;;;;;;11.26;100.00;93401.28;6244940;22;20169;-62
2022/09/24 01:06:29;;;;;;;1999.90;999.90;;;;;;;11.24;100.00;93406.44;6270982;22;20166;-62
2022/09/24 01:08:57;;;;;;;1999.90;999.90;;;;;;;11.26;100.00;93395.81;6245096;23;20240;-62
2022/09/24 01:11:31;;;;;;;1999.90;999.90;;;;;;;11.20;100.00;93400.38;6245215;22;20162;-62
2022/09/24 01:14:26;;;;;;;1999.90;999.90;;;;;;;11.24;100.00;93387.31;6245063;23;20169;-62
2022/09/24 01:17:15;;;;;;;1999.90;999.90;;;;;;;11.23;100.00;93380.34;6270961;22;20173;-62
2022/09/24 01:20:04;;;;;;;1999.90;999.90;;;;;;;11.19;100.00;93374.28;6245970;23;20165;-62
2022/09/24 01:22:42;;;;;;;1999.90;999.90;;;;;;;11.15;100.00;93373.66;6246694;23;20240;-62
2022/09/24 01:25:42;;;;;;;1999.90;999.90;;;;;;;11.09;100.00;93359.09;6271834;22;20181;-62
2022/09/24 01:28:51;;;;;;;1999.90;999.90;;;;;;;11.12;100.00;93374.59;6272143;22;20173;-62
2022/09/24 01:31:24;;;;;;;1999.90;999.90;;;;;;;11.08;100.00;93373.97;6246526;23;20252;-62
2022/09/24 01:33:53;;;;;;;1999.90;999.90;;;;;;;11.09;100.00;93364.56;6246339;23;20261;-62
2022/09/24 01:36:20;;;;;;;1999.90;999.90;;;;;;;11.05;100.00;93356.53;6271963;22;20165;-62
2022/09/24 01:38:48;;;;;;;1999.90;999.90;;;;;;;11.05;100.00;93364.72;6245683;22;20177;-62
2022/09/24 01:41:16;;;;;;;1999.90;999.90;;;;;;;11.03;100.00;93372.59;6246653;23;20170;-62
2022/09/24 01:43:42;;;;;;;1999.90;999.90;;;;;;;11.00;100.00;93365.31;6246183;23;20600;-62
2022/09/24 01:46:09;;;;;;;1999.90;999.90;;;;;;;10.95;100.00;93362.44;6245927;22;20173;-64
2022/09/24 01:48:39;;;;;;;1999.90;999.90;;;;;;;10.90;100.00;93361.09;6246059;22;20574;-62
2022/09/24 01:51:21;;;;;;;1999.90;999.90;;;;;;;10.87;100.00;93362.00;6245927;22;20227;-63
2022/09/24 01:53:50;;;;;;;1999.90;999.90;;;;;;;10.86;100.00;93351.53;6246396;23;20220;-62
2022/09/24 01:56:23;;;;;;;1999.90;999.90;;;;;;;10.85;100.00;93350.75;6246406;23;20165;-61
2022/09/24 01:58:54;;;;;;;1999.90;999.90;;;;;;;10.84;100.00;93343.00;6271946;22;20161;-62
2022/09/24 02:01:28;;;;;;;1999.90;999.90;;;;;;;10.63;100.00;93344.66;6246545;23;20589;-63
2022/09/24 02:04:05;;;;;;;1999.90;999.90;;;;;;;10.63;100.00;93335.72;6272226;22;20161;-63
2022/09/24 02:06:35;;;;;;;1999.90;999.90;;;;;;;10.75;100.00;93326.63;6246092;23;20164;-62
2022/09/24 02:09:01;;;;;;;1999.90;999.90;;;;;;;10.74;100.00;93308.75;6245912;22;20192;-63
2022/09/24 02:11:27;;;;;;;1999.90;999.90;;;;;;;10.79;100.00;93303.44;6245773;23;20165;-63
2022/09/24 02:14:11;;;;;;;1999.90;999.90;;;;;;;10.82;100.00;93301.75;6245970;22;20235;-62
2022/09/24 02:16:47;;;;;;;1999.90;999.90;;;;;;;10.81;100.00;93305.72;6246350;23;20164;-63
2022/09/24 02:19:16;;;;;;;1999.90;999.90;;;;;;;10.81;100.00;93295.53;6245904;23;20192;-63
2022/09/24 02:21:44;;;;;;;1999.90;999.90;;;;;;;10.78;100.00;93299.19;6245927;23;20165;-62
2022/09/24 02:24:18;;;;;;;1999.90;999.90;;;;;;;10.79;100.00;93297.97;6245815;23;20200;-62
2022/09/24 02:26:44;;;;;;;1999.90;999.90;;;;;;;10.77;100.00;93299.63;6272204;22;20241;-62
2022/09/24 02:29:11;;;;;;;1999.90;999.90;;;;;;;10.73;100.00;93294.34;6245722;23;20244;-62
2022/09/24 02:31:40;;;;;;;1999.90;999.90;;;;;;;10.73;100.00;93299.03;6246207;23;20164;-62
2022/09/24 02:34:22;;;;;;;1999.90;999.90;;;;;;;10.75;100.00;93296.59;6271383;22;20161;-62
2022/09/24 02:36:58;;;;;;;1999.90;999.90;;;;;;;10.81;100.00;93292.06;6246377;23;20165;-61
2022/09/24 02:39:24;;;;;;;1999.90;999.90;;;;;;;10.84;100.00;93293.88;6271812;22;20188;-63
2022/09/24 02:41:51;;;;;;;1999.90;999.90;;;;;;;10.76;100.00;93292.66;6245499;23;20173;-62
2022/09/24 02:44:17;;;;;;;1999.90;999.90;;;;;;;10.89;100.00;93279.63;6246305;22;20215;-63
2022/09/24 02:46:44;;;;;;;1999.90;999.90;;;;;;;10.89;100.00;93296.75;6246515;22;20648;-62
2022/09/24 02:49:09;;;;;;;1999.90;999.90;;;;;;;10.89;100.00;93285.81;6271420;22;20600;-63
2022/09/24 02:51:35;;;;;;;1999.90;999.90;;;;;;;10.93;100.00;93296.59;6245617;23;20185;-61
2022/09/24 02:54:01;;;;;;;1999.90;999.90;;;;;;;10.92;100.00;93289.63;6245701;23;20165;-61
2022/09/24 02:56:28;;;;;;;1999.90;999.90;;;;;;;10.89;100.00;93298.72;6245828;22;20189;-61
2022/09/24 02:58:53;;;;;;;1999.90;999.90;;;;;;;10.86;100.00;93302.38;6245879;22;20189;-62
2022/09/24 03:01:19;;;;;;;1999.90;999.90;;;;;;;10.84;100.00;93302.06;6245651;22;20161;-63
2022/09/24 03:03:44;;;;;;;1999.90;999.90;;;;;;;10.81;100.00;93301.00;6245695;22;20170;-61
2022/09/24 03:06:12;;;;;;;1999.90;999.90;;;;;;;10.80;100.00;93298.72;6245779;22;20161;-63
2022/09/24 03:08:38;;;;;;;1999.90;999.90;;;;;;;10.77;100.00;93299.63;6246642;23;20219;-62
2022/09/24 03:11:03;;;;;;;1999.90;999.90;;;;;;;10.77;100.00;93299.63;6245856;22;20490;-62
2022/09/24 03:13:29;;;;;;;1999.90;999.90;;;;;;;10.79;100.00;93299.94;6246291;23;20241;-62
2022/09/24 03:15:54;;;;;;;1999.90;999.90;;;;;;;10.82;100.00;93297.03;6271947;22;20178;-63
2022/09/24 03:18:19;;;;;;;1999.90;999.90;;;;;;;10.80;100.00;93290.53;6271405;22;20169;-63
2022/09/24 03:20:54;;;;;;;1999.90;999.90;;;;;;;10.77;100.00;93291.44;6271950;22;20212;-63
2022/09/24 03:23:19;;;;;;;1999.90;999.90;;;;;;;10.80;100.00;93290.53;6271235;22;20169;-64
2022/09/24 03:25:44;;;;;;;1999.90;999.90;;;;;;;10.83;100.00;93297.81;6271141;22;20247;-64
2022/09/24 03:28:10;;;;;;;1999.90;999.90;;;;;;;10.84;100.00;93293.88;6271086;22;20169;-63
2022/09/24 03:33:19;;;;;;;1999.90;999.90;;;;;;;10.91;100.00;93326.31;6247034;23;20192;-63
2022/09/24 03:35:44;;;;;;;1999.90;999.90;;;;;;;10.94;100.00;93319.97;6270779;22;20167;-63
2022/09/24 03:38:10;;;;;;;1999.90;999.90;;;;;;;10.95;100.00;93330.44;6271744;22;20153;-64
2022/09/24 03:40:35;;;;;;;1999.90;999.90;;;;;;;10.97;100.00;93327.25;6270584;22;20161;-63
2022/09/24 03:43:00;;;;;;;1999.90;999.90;;;;;;;11.01;100.00;93333.31;6271582;22;20172;-63
2022/09/24 03:45:26;;;;;;;1999.90;999.90;;;;;;;11.04;100.00;93318.75;6270964;22;20170;-63
2022/09/24 03:47:51;;;;;;;1999.90;999.90;;;;;;;11.03;100.00;93337.09;6271012;22;20160;-65
2022/09/24 03:50:16;;;;;;;1999.90;999.90;;;;;;;11.06;100.00;93322.53;6270816;22;20189;-65
2022/09/24 03:52:42;;;;;;;1999.90;999.90;;;;;;;11.09;100.00;93327.09;6270943;22;20218;-66
2022/09/24 03:55:08;;;;;;;1999.90;999.90;;;;;;;11.14;100.00;93328.47;6271093;22;20162;-65
2022/09/24 03:57:33;;;;;;;1999.90;999.90;;;;;;;11.16;100.00;93328.75;6246002;23;20237;-64
2022/09/24 03:59:59;;;;;;;1999.90;999.90;;;;;;;11.20;100.00;93326.59;6245518;22;20234;-64
2022/09/24 04:02:24;;;;;;;1999.90;999.90;;;;;;;11.23;100.00;93331.16;6270724;22;20169;-62
2022/09/24 04:04:51;;;;;;;1999.90;999.90;;;;;;;11.27;100.00;93326.31;6270849;22;20495;-63
2022/09/24 04:07:16;;;;;;;1999.90;999.90;;;;;;;11.30;100.00;93317.19;6270525;22;20172;-65
2022/09/24 04:09:41;;;;;;;1999.90;999.90;;;;;;;11.31;100.00;93310.50;6245696;23;20192;-64
2022/09/24 04:12:07;;;;;;;1999.90;999.90;;;;;;;11.31;100.00;93316.75;6270721;22;20189;-63
2022/09/24 04:14:32;;;;;;;1999.90;999.90;;;;;;;11.33;100.00;93324.47;6271067;22;20166;-63
2022/09/24 04:16:57;;;;;;;1999.90;999.90;;;;;;;11.34;100.00;93320.53;6270961;22;20203;-65
2022/09/24 04:19:24;;;;;;;1999.90;999.90;;;;;;;11.36;100.00;93316.09;6245286;22;20188;-63
2022/09/24 04:21:49;;;;;;;1999.90;999.90;;;;;;;11.36;100.00;93316.09;6246131;22;20187;-63
2022/09/24 04:24:15;;;;;;;1999.90;999.90;;;;;;;11.38;100.00;93310.97;6271298;22;20161;-61
2022/09/24 04:26:40;;;;;;;1999.90;999.90;;;;;;;11.41;100.00;93309.28;6270632;22;20498;-63
2022/09/24 04:29:06;;;;;;;1999.90;999.90;;;;;;;11.43;100.00;93301.34;6271030;22;20498;-63
2022/09/24 04:31:32;;;;;;;1999.90;999.90;;;;;;;11.46;100.00;93306.69;6270791;22;20165;-63
2022/09/24 04:33:57;;;;;;;1999.90;999.90;;;;;;;11.51;100.00;93313.50;6271258;22;20185;-65
2022/09/24 04:36:23;;;;;;;1999.90;999.90;;;;;;;11.53;100.00;93311.06;6245551;22;20162;-63
2022/09/24 04:38:49;;;;;;;1999.90;999.90;;;;;;;11.56;100.00;93310.16;6270657;22;20159;-63
2022/09/24 04:41:17;;;;;;;1999.90;999.90;;;;;;;11.58;100.00;93307.72;6245769;23;20158;-63
2022/09/24 04:43:45;;;;;;;1999.90;999.90;;;;;;;11.62;100.00;93308.34;6245357;23;20226;-63
2022/09/24 04:46:11;;;;;;;1999.90;999.90;;;;;;;11.62;100.00;93314.56;6245992;22;20173;-62
2022/09/24 04:48:37;;;;;;;1999.90;999.90;;;;;;;11.66;100.00;93317.13;6245130;23;20178;-62
2022/09/24 04:51:05;;;;;;;1999.90;999.90;;;;;;;11.67;100.00;93315.91;6245096;23;20184;-62
2022/09/24 04:53:31;;;;;;;1999.90;999.90;;;;;;;11.71;100.00;93316.50;6245034;23;20189;-63
2022/09/24 04:55:58;;;;;;;1999.90;999.90;;;;;;;11.73;100.00;93319.53;6245636;22;20159;-63
2022/09/24 04:58:25;;;;;;;1999.90;999.90;;;;;;;11.75;100.00;93317.09;6270413;22;20599;-63
2022/09/24 05:00:52;;;;;;;1999.90;999.90;;;;;;;11.76;100.00;93313.16;6245028;22;20590;-63
2022/09/24 05:03:19;;;;;;;1999.90;999.90;;;;;;;11.83;100.00;93308.09;6245107;22;20170;-63
2022/09/24 05:05:45;;;;;;;1999.90;999.90;;;;;;;11.83;100.00;93312.81;6245364;22;20158;-63
2022/09/24 05:08:10;;;;;;;1999.90;999.90;;;;;;;11.83;100.00;93307.34;6270547;22;20170;-63
2022/09/24 05:10:35;;;;;;;1999.90;999.90;;;;;;;11.86;100.00;93311.88;6270407;22;20183;-64
2022/09/24 05:13:01;;;;;;;1999.90;999.90;;;;;;;11.87;100.00;93310.69;6270451;22;20186;-63
2022/09/24 05:15:26;;;;;;;1999.90;999.90;;;;;;;11.89;100.00;93308.22;6270440;22;20246;-63
2022/09/24 05:17:52;;;;;;;1999.90;999.90;;;;;;;11.91;100.00;93303.81;6244923;23;20159;-64
2022/09/24 05:20:17;;;;;;;1999.90;999.90;;;;;;;11.92;100.00;93304.59;6244630;22;20167;-64
2022/09/24 05:22:44;;;;;;;1999.90;999.90;;;;;;;11.96;100.00;93310.63;6270510;22;20170;-64
2022/09/24 05:25:11;;;;;;;1999.90;999.90;;;;;;;12.00;100.00;93305.75;6244790;22;20220;-64
2022/09/24 05:27:36;;;;;;;1999.90;999.90;;;;;;;12.04;100.00;93309.06;6244947;22;20195;-63
2022/09/24 05:30:04;;;;;;;1999.90;999.90;;;;;;;12.06;100.00;93309.38;6245137;23;20183;-65
2022/09/24 05:32:31;;;;;;;1999.90;999.90;;;;;;;12.08;100.00;93309.66;6270535;22;20219;-66
2022/09/24 05:34:56;;;;;;;1999.90;999.90;;;;;;;12.11;100.00;93306.78;6270099;22;20181;-65
2022/09/24 05:37:22;;;;;;;1999.90;999.90;;;;;;;12.13;100.00;93311.78;6270216;22;20196;-63
2022/09/24 05:39:47;;;;;;;1999.90;999.90;;;;;;;12.15;100.00;93307.34;6270432;22;20494;-65
2022/09/24 05:42:13;;;;;;;1999.90;999.90;;;;;;;12.17;100.00;93306.91;6270249;22;20183;-66
2022/09/24 05:44:39;;;;;;;1999.90;999.90;;;;;;;12.18;100.00;93311.13;6270344;22;20510;-64
2022/09/24 05:47:04;;;;;;;1999.90;999.90;;;;;;;12.27;100.00;93313.81;6244612;23;20172;-64
2022/09/24 05:49:30;;;;;;;1999.90;999.90;;;;;;;12.36;100.00;93311.03;6270120;22;20457;-66
2022/09/24 05:51:56;;;;;;;1999.90;999.90;;;;;;;12.48;100.00;93307.31;6244393;23;20165;-65
2022/09/24 05:54:21;;;;;;;1999.90;999.90;;;;;;;12.59;100.00;93302.06;6244274;23;20157;-65
2022/09/24 05:56:47;;;;;;;1999.90;999.90;;;;;;;12.70;100.00;93313.25;6244844;22;20158;-64
2022/09/24 05:59:12;;;;;;;1999.90;999.90;;;;;;;12.86;100.00;93313.59;6270506;22;20482;-65
2022/09/24 06:01:38;;;;;;;1999.90;999.90;;;;;;;13.22;100.00;93316.06;6270489;22;20164;-64
2022/09/24 06:04:03;;;;;;;1999.90;999.90;;;;;;;13.38;100.00;93344.25;6270327;22;20187;-63
2022/09/24 06:06:28;;;;;;;1999.90;999.90;;;;;;;13.50;100.00;93363.16;6271879;22;20199;-64
2022/09/24 06:08:54;;;;;;;1999.90;999.90;;;;;;;13.57;100.00;93378.50;6246727;23;20175;-64
2022/09/24 06:11:23;;;;;;;1999.90;999.90;;;;;;;13.56;100.00;93394.19;6246236;23;20495;-65
2022/09/24 06:13:52;;;;;;;1999.90;999.90;;;;;;;13.61;100.00;93411.97;6246375;23;20205;-64
2022/09/24 06:16:18;;;;;;;1999.90;999.90;;;;;;;13.69;100.00;93430.34;6245873;22;20193;-63
2022/09/24 06:18:44;;;;;;;1999.90;999.90;;;;;;;13.72;100.00;93445.84;6271538;22;20162;-65
2022/09/24 06:21:12;;;;;;;1999.90;999.90;;;;;;;13.78;100.00;93441.25;6245852;23;20165;-64
2022/09/24 06:23:38;;;;;;;1999.90;999.90;;;;;;;13.85;100.00;93449.09;6245964;23;20165;-64
2022/09/24 06:26:06;;;;;;;1999.90;999.90;;;;;;;13.96;100.00;93465.78;6246349;22;20160;-65
2022/09/24 06:28:32;;;;;;;1999.90;999.90;;;;;;;14.20;100.00;93491.16;6245781;23;20168;-65
2022/09/24 06:30:59;;;;;;;1999.90;999.90;;;;;;;14.28;100.00;93525.25;6246175;22;20248;-65
2022/09/24 06:33:25;;;;;;;1999.90;999.90;;;;;;;14.35;100.00;93541.38;6271202;22;20185;-65
2022/09/24 06:35:50;;;;;;;1999.90;999.90;;;;;;;14.46;100.00;93577.28;6245532;22;20223;-65
2022/09/24 06:38:17;;;;;;;1999.90;999.90;;;;;;;14.57;100.00;93601.47;6271446;22;20176;-65
2022/09/24 06:40:52;;;;;;;1999.90;999.90;;;;;;;14.75;100.00;93624.00;6272119;22;20174;-66
2022/09/24 06:43:18;;;;;;;1999.90;999.90;;;;;;;14.90;100.00;93644.00;6246116;23;20171;-65
2022/09/24 06:45:43;;;;;;;1999.90;999.90;;;;;;;14.89;100.00;93661.75;6271899;22;20240;-65
2022/09/24 06:48:11;;;;;;;1999.90;999.90;;;;;;;14.92;100.00;93671.78;6245728;23;20165;-65
2022/09/24 06:50:42;;;;;;;1999.90;999.90;;;;;;;14.97;100.00;93679.38;6271185;22;20192;-66
2022/09/24 06:53:09;;;;;;;1999.90;999.90;;;;;;;15.00;100.00;93694.94;6245690;23;20188;-64
2022/09/24 06:55:35;;;;;;;1999.90;999.90;;;;;;;15.08;100.00;93696.06;6245742;23;20209;-66
2022/09/24 06:58:03;;;;;;;1999.90;999.90;;;;;;;15.19;100.00;93712.75;6245583;22;20195;-67
2022/09/24 07:00:28;;;;;;;1999.90;999.90;;;;;;;15.17;100.00;93741.97;6271183;22;20630;-67
2022/09/24 07:02:53;;;;;;;1999.90;999.90;;;;;;;15.23;100.00;93757.34;6271641;22;20165;-67
2022/09/24 07:05:19;;;;;;;1999.90;999.90;;;;;;;15.29;100.00;93766.44;6271146;22;20200;-63
2022/09/24 07:07:44;;;;;;;1999.90;999.90;;;;;;;15.28;100.00;93784.19;6271694;22;20165;-65
2022/09/24 07:10:10;;;;;;;1999.90;999.90;;;;;;;15.30;100.00;93789.97;6271617;22;20169;-66
2022/09/24 07:12:35;;;;;;;1999.90;999.90;;;;;;;15.30;100.00;93787.22;6245854;23;20180;-66
2022/09/24 07:15:02;;;;;;;1999.90;999.90;;;;;;;15.29;100.00;93787.69;6246053;23;20165;-67
2022/09/24 07:17:28;;;;;;;1999.90;999.90;;;;;;;15.24;100.00;93796.59;6244992;23;20172;-66
2022/09/24 07:19:54;;;;;;;1999.90;999.90;;;;;;;15.22;100.00;93805.31;6245990;22;20270;-65
2022/09/24 07:22:20;;;;;;;1999.90;999.90;;;;;;;15.24;100.00;93802.88;6245499;23;20591;-62
2022/09/24 07:24:47;;;;;;;1999.90;999.90;;;;;;;15.24;100.00;93808.38;6245900;22;20608;-65
2022/09/24 07:27:13;;;;;;;1999.90;999.90;;;;;;;15.23;100.00;93806.84;6245699;23;20199;-65
2022/09/24 07:29:38;;;;;;;1999.90;999.90;;;;;;;15.21;100.00;93812.06;6245344;22;20188;-63
2022/09/24 07:32:04;;;;;;;1999.90;999.90;;;;;;;15.21;100.00;93820.31;6271192;22;20603;-65
2022/09/24 07:34:30;;;;;;;1999.90;999.90;;;;;;;15.22;100.00;93816.31;6245544;22;20162;-65
2022/09/24 07:36:56;;;;;;;1999.90;999.90;;;;;;;15.25;100.00;93820.88;6246127;22;20180;-63
2022/09/24 07:39:23;;;;;;;1999.90;999.90;;;;;;;15.37;100.00;93825.38;6245694;23;20492;-63
2022/09/24 07:41:51;;;;;;;1999.90;999.90;;;;;;;15.54;100.00;93826.47;6245454;23;20168;-62
2022/09/24 07:44:18;;;;;;;1999.90;999.90;;;;;;;15.64;100.00;93838.16;6246188;23;20600;-64
2022/09/24 07:46:46;;;;;;;1999.90;999.90;;;;;;;15.70;100.00;93839.75;6245111;23;20164;-63
2022/09/24 07:49:11;;;;;;;1999.90;999.90;;;;;;;15.75;100.00;93847.38;6214109;23;20170;-62
2022/09/24 07:51:37;;;;;;;1999.90;999.90;;;;;;;15.75;100.00;93841.88;6189212;23;20204;-62
2022/09/24 07:54:02;;;;;;;1999.90;999.90;;;;;;;15.74;100.00;93840.31;6189724;23;20264;-62
2022/09/24 07:56:31;;;;;;;1999.90;999.90;;;;;;;15.77;100.00;93839.38;6189929;23;20171;-62
2022/09/24 07:58:56;;;;;;;1999.90;999.90;;;;;;;15.71;100.00;93838.53;6189176;23;20177;-61
2022/09/24 08:01:21;;;;;;;1999.90;999.90;;;;;;;15.66;100.00;93832.94;6189373;23;20166;-62
2022/09/24 08:03:47;;;;;;;1999.90;999.90;;;;;;;15.59;100.00;93828.53;6189420;23;20189;-63
2022/09/24 08:06:12;;;;;;;1999.90;999.90;;;;;;;15.55;100.00;93808.72;6188823;23;20255;-61
2022/09/24 08:08:38;;;;;;;1999.90;999.90;;;;;;;15.50;100.00;93798.38;6188916;23;20293;-62
2022/09/24 08:11:10;;;;;;;1999.90;999.90;;;;;;;15.55;100.00;93783.94;6188659;23;20172;-63
2022/09/24 08:13:36;;;;;;;1999.90;999.90;;;;;;;15.57;100.00;93781.50;6188534;23;20194;-65
2022/09/24 08:16:03;;;;;;;1999.90;999.90;;;;;;;15.59;100.00;93770.75;6189240;23;20189;-63
2022/09/24 08:18:30;;;;;;;1999.90;999.90;;;;;;;15.63;100.00;93757.56;6189486;23;20614;-64
2022/09/24 08:20:56;;;;;;;1999.90;999.90;;;;;;;15.67;100.00;93744.38;6234352;23;20171;-64
2022/09/24 08:23:22;;;;;;;1999.90;999.90;;;;;;;15.72;100.00;93737.44;6245493;22;20166;-64
2022/09/24 08:25:48;;;;;;;1999.90;999.90;;;;;;;15.78;100.00;93730.78;6245709;23;20169;-63
2022/09/24 08:28:18;;;;;;;1999.90;999.90;;;;;;;15.83;100.00;93732.13;6245330;22;20169;-63
2022/09/24 08:30:44;;;;;;;1999.90;999.90;;;;;;;15.89;100.00;93741.22;6271369;22;20161;-64
2022/09/24 08:33:10;;;;;;;1999.90;999.90;;;;;;;15.94;100.00;93744.06;6245794;23;20209;-63
2022/09/24 08:35:38;;;;;;;1999.90;999.90;;;;;;;15.95;100.00;93775.09;6244965;22;20595;-63
2022/09/24 08:38:05;;;;;;;1999.90;999.90;;;;;;;15.96;100.00;93769.13;6245831;23;20169;-63
2022/09/24 08:40:37;;;;;;;1999.90;999.90;;;;;;;15.92;100.00;93779.56;6245749;23;20161;-64
2022/09/24 08:43:29;;;;;;;1999.90;999.90;;;;;;;15.89;100.00;93780.50;6245480;23;20196;-62
2022/09/24 08:48:50;;;;;;;1999.90;999.90;;;;;;;15.82;100.00;93769.16;6246384;23;20168;-63
2022/09/24 08:51:19;;;;;;;1999.90;999.90;;;;;;;15.79;100.00;93748.84;6245629;23;20184;-62
2022/09/24 08:54:08;;;;;;;1999.90;999.90;;;;;;;15.74;100.00;93713.69;6244890;22;20189;-63
2022/09/24 08:56:36;;;;;;;1999.90;999.90;;;;;;;15.79;100.00;93693.00;6245644;23;20252;-63
2022/09/24 08:59:14;;;;;;;1999.90;999.90;;;;;;;15.72;100.00;93677.66;6270460;22;20161;-62
2022/09/24 09:02:27;;;;;;;1999.90;999.90;;;;;;;15.73;100.00;93632.38;6245300;23;20161;-64
2022/09/24 09:05:15;;;;;;;1999.90;999.90;;;;;;;15.80;100.00;93596.19;6154690;23;20227;-64
2022/09/24 09:08:01;;;;;;;1999.90;999.90;;;;;;;15.82;100.00;93590.97;6270242;22;20207;-65
2022/09/24 09:10:32;;;;;;;1999.90;999.90;;;;;;;15.88;100.00;93591.06;6270911;22;20165;-64
2022/09/24 09:13:20;;;;;;;1999.90;999.90;;;;;;;15.92;100.00;93603.34;6213841;23;20189;-64
2022/09/24 09:15:52;;;;;;;1999.90;999.90;;;;;;;16.02;100.00;93590.97;6188743;23;20149;-63
2022/09/24 09:18:25;;;;;;;1999.90;999.90;;;;;;;16.10;100.00;93596.84;6188968;23;20181;-65
2022/09/24 09:20:51;;;;;;;1999.90;999.90;;;;;;;16.20;100.00;93607.22;6189126;23;20166;-63
2022/09/24 09:23:25;;;;;;;1999.90;999.90;;;;;;;16.31;100.00;93612.88;6188629;23;20176;-62
2022/09/24 09:25:58;;;;;;;1999.90;999.90;;;;;;;16.39;100.00;93622.22;6213935;23;20164;-63
2022/09/24 09:28:28;;;;;;;1999.90;999.90;;;;;;;16.44;100.00;93643.59;6188594;23;20222;-65
2022/09/24 09:30:57;;;;;;;1999.90;999.90;;;;;;;16.53;100.00;93650.22;6188249;23;20172;-63
2022/09/24 09:33:45;;;;;;;1999.90;999.90;;;;;;;16.54;100.00;93684.81;6213229;23;20277;-64
2022/09/24 09:36:25;;;;;;;1999.90;999.90;;;;;;;16.65;100.00;93691.22;6213436;23;20170;-62
2022/09/24 09:39:37;;;;;;;1999.90;999.90;;;;;;;16.88;100.00;93687.47;6213327;23;20158;-63
2022/09/24 09:42:21;;;;;;;1999.90;999.90;;;;;;;17.02;100.00;93713.44;6215321;23;20172;-65
2022/09/24 09:44:48;;;;;;;1999.90;999.90;;;;;;;17.13;100.00;93738.38;6240939;23;20173;-62
2022/09/24 09:47:41;;;;;;;1999.90;999.90;;;;;;;17.16;100.00;93759.47;6245856;22;20169;-63
2022/09/24 09:50:36;;;;;;;1999.90;999.90;;;;;;;17.24;100.00;93757.81;6271837;22;20669;-62
2022/09/24 09:53:03;;;;;;;1999.90;999.90;;;;;;;17.29;100.00;93770.88;6220206;22;20220;-62
2022/09/24 09:55:33;;;;;;;1999.90;999.90;;;;;;;17.32;100.00;93780.97;6246036;23;20164;-62
2022/09/24 09:58:14;;;;;;;1999.90;999.90;;;;;;;17.45;100.00;93784.16;6246267;23;20161;-62
2022/09/24 10:00:40;;;;;;;1999.90;999.90;;;;;;;17.35;100.00;93793.78;6271583;22;20240;-63
2022/09/24 10:03:19;;;;;;;1999.90;999.90;;;;;;;17.39;100.00;93805.38;6246259;22;20227;-64
2022/09/24 10:05:53;;;;;;;1999.90;999.90;;;;;;;17.39;100.00;93808.13;6246405;23;20558;-64
2022/09/24 10:08:23;;;;;;;1999.90;999.90;;;;;;;17.40;100.00;93804.13;6245790;23;20236;-65
2022/09/24 10:10:59;;;;;;;1999.90;999.90;;;;;;;17.31;100.00;93812.56;6245738;23;20181;-62
2022/09/24 10:13:26;;;;;;;1999.90;999.90;;;;;;;17.25;100.00;93787.66;6245834;23;20178;-63
2022/09/24 10:16:03;;;;;;;1999.90;999.90;;;;;;;17.23;100.00;93761.81;6245938;23;20187;-62
2022/09/24 10:18:41;;;;;;;1999.90;999.90;;;;;;;17.14;100.00;93759.19;6245734;23;20157;-62
2022/09/24 10:21:12;;;;;;;1999.90;999.90;;;;;;;17.09;100.00;93746.09;6245790;23;20211;-63
2022/09/24 10:23:46;;;;;;;1999.90;999.90;;;;;;;16.93;100.00;93736.38;6271551;22;20165;-62
2022/09/24 10:26:11;;;;;;;1999.90;999.90;;;;;;;16.81;100.00;93720.19;6271655;22;20161;-62
2022/09/24 10:31:33;;;;;;;1999.90;999.90;;;;;;;16.99;100.00;93681.28;6246996;23;20214;-63
2022/09/24 10:34:00;;;;;;;1999.90;999.90;;;;;;;17.03;100.00;93668.03;6245541;23;20184;-63
2022/09/24 10:36:28;;;;;;;1999.90;999.90;;;;;;;17.12;100.00;93670.66;6270797;22;20161;-64
2022/09/24 10:39:14;;;;;;;1999.90;999.90;;;;;;;17.25;100.00;93662.72;6245781;23;20251;-63
2022/09/24 10:41:57;;;;;;;1999.90;999.90;;;;;;;17.39;100.00;93670.13;6245621;22;20167;-63
2022/09/24 10:44:26;;;;;;;1999.90;999.90;;;;;;;17.31;100.00;93669.06;6246040;23;20520;-63
2022/09/24 10:47:03;;;;;;;1999.90;999.90;;;;;;;17.48;100.00;93675.53;6245802;22;20169;-63
2022/09/24 10:49:50;;;;;;;1999.90;999.90;;;;;;;17.62;100.00;93664.34;6245860;23;20160;-63
2022/09/24 10:52:34;;;;;;;1999.90;999.90;;;;;;;17.71;100.00;93666.16;6271312;22;20259;-63
2022/09/24 10:55:18;;;;;;;1999.90;999.90;;;;;;;17.74;100.00;93667.97;6271167;22;20169;-63
2022/09/24 10:58:24;;;;;;;1999.90;999.90;;;;;;;17.62;100.00;93686.44;6271229;22;20603;-63
2022/09/24 11:01:10;;;;;;;1999.90;999.90;;;;;;;17.65;100.00;93693.75;6271151;22;20256;-63
2022/09/24 11:03:54;;;;;;;1999.90;999.90;;;;;;;17.81;100.00;93678.56;6245220;23;20264;-62
2022/09/24 11:06:44;;;;;;;1999.90;999.90;;;;;;;17.62;100.00;93727.06;6271268;22;20169;-63
2022/09/24 11:09:24;;;;;;;1999.90;999.90;;;;;;;17.68;100.00;93708.56;6246174;23;20192;-62